createdAt,value
2019-02-04T00:01:56.167Z,2.60
2019-02-04T00:04:27.125Z,2.60
2019-02-04T00:06:57.806Z,2.50
2019-02-04T00:09:29.168Z,2.50
2019-02-04T00:12:00.207Z,2.50
2019-02-04T00:14:30.888Z,2.50
2019-02-04T00:17:01.925Z,2.40
2019-02-04T00:19:32.725Z,2.40
2019-02-04T00:22:03.629Z,2.40
2019-02-04T00:24:34.644Z,2.30
2019-02-04T00:27:05.607Z,2.30
2019-02-04T00:29:36.525Z,2.30
2019-02-04T00:32:07.605Z,2.30
2019-02-04T00:34:38.245Z,2.30
2019-02-04T00:37:09.655Z,2.30
2019-02-04T00:39:40.725Z,2.30
2019-02-04T00:42:11.926Z,2.30
2019-02-04T00:44:42.685Z,2.30
2019-02-04T00:47:14.165Z,2.30
2019-02-04T00:49:45.166Z,2.30
2019-02-04T00:52:15.890Z,2.20
2019-02-04T00:54:46.725Z,2.20
2019-02-04T00:57:17.765Z,2.20
2019-02-04T00:59:49.008Z,2.20
2019-02-04T01:02:20.726Z,2.20
2019-02-04T01:04:52.205Z,2.10
2019-02-04T01:07:23.805Z,2.10
2019-02-04T01:09:56.247Z,2.10
2019-02-04T01:12:27.173Z,2.10
2019-02-04T01:14:58.333Z,2.10
2019-02-04T01:17:29.165Z,2.10
2019-02-04T01:19:59.925Z,2.00
2019-02-04T01:22:30.647Z,2.00
2019-02-04T01:25:01.699Z,2.00
2019-02-04T01:27:33.965Z,1.90
2019-02-04T01:30:06.077Z,1.90
2019-02-04T01:32:36.814Z,1.90
2019-02-04T01:35:08.245Z,1.90
2019-02-04T01:37:39.207Z,1.90
2019-02-04T01:40:16.765Z,1.80
2019-02-04T01:42:47.845Z,1.80
2019-02-04T01:45:18.686Z,1.70
2019-02-04T01:47:49.565Z,1.70
2019-02-04T01:50:22.685Z,1.70
2019-02-04T01:52:53.444Z,1.60
2019-02-04T01:55:24.564Z,1.60
2019-02-04T01:57:56.965Z,1.60
2019-02-04T02:00:30.917Z,1.50
2019-02-04T02:03:02.173Z,1.50
2019-02-04T02:05:33.765Z,1.40
2019-02-04T02:08:04.557Z,1.40
2019-02-04T02:10:35.685Z,1.40
2019-02-04T02:13:06.325Z,1.40
2019-02-04T02:15:37.645Z,1.40
2019-02-04T02:18:08.413Z,1.40
2019-02-04T02:20:39.245Z,1.30
2019-02-04T02:23:12.205Z,1.30
2019-02-04T02:25:43.005Z,1.30
2019-02-04T02:28:15.514Z,1.30
2019-02-04T02:30:46.645Z,1.30
2019-02-04T02:33:17.413Z,1.20
2019-02-04T02:35:48.285Z,1.20
2019-02-04T02:38:19.048Z,1.20
2019-02-04T02:40:50.611Z,1.20
2019-02-04T02:43:21.797Z,1.20
2019-02-04T02:45:52.608Z,1.20
2019-02-04T02:48:24.085Z,1.20
2019-02-04T02:50:56.125Z,1.20
2019-02-04T02:53:26.805Z,1.20
2019-02-04T02:55:57.845Z,1.20
2019-02-04T02:58:29.005Z,1.20
2019-02-04T03:01:00.006Z,1.20
2019-02-04T03:03:31.526Z,1.20
2019-02-04T03:06:02.565Z,1.20
2019-02-04T03:08:33.565Z,1.10
2019-02-04T03:11:05.325Z,1.10
2019-02-04T03:13:36.167Z,1.10
2019-02-04T03:16:07.325Z,1.10
2019-02-04T03:18:38.206Z,1.00
2019-02-04T03:21:08.845Z,1.00
2019-02-04T03:23:40.333Z,1.00
2019-02-04T03:26:11.005Z,1.00
2019-02-04T03:28:42.365Z,1.00
2019-02-04T03:31:13.087Z,1.00
2019-02-04T03:33:44.047Z,1.00
2019-02-04T03:36:14.885Z,1.00
2019-02-04T03:38:46.086Z,1.00
2019-02-04T03:41:17.045Z,1.00
2019-02-04T03:43:48.688Z,1.00
2019-02-04T03:46:19.766Z,1.00
2019-02-04T03:48:50.405Z,1.00
2019-02-04T03:51:21.398Z,1.00
2019-02-04T03:53:52.446Z,1.00
2019-02-04T03:56:27.097Z,1.00
2019-02-04T03:58:57.925Z,1.00
2019-02-04T04:01:29.085Z,0.90
2019-02-04T04:04:00.015Z,0.90
2019-02-04T04:06:31.617Z,0.90
2019-02-04T04:09:02.486Z,0.90
2019-02-04T04:11:33.885Z,0.90
2019-02-04T04:14:06.965Z,0.90
2019-02-04T04:16:38.085Z,0.90
2019-02-04T04:19:09.526Z,0.90
2019-02-04T04:21:40.565Z,0.90
2019-02-04T04:24:11.847Z,0.90
2019-02-04T04:26:43.206Z,0.90
2019-02-04T04:29:14.427Z,0.90
2019-02-04T04:31:45.846Z,0.90
2019-02-04T04:34:16.608Z,0.90
2019-02-04T04:36:47.565Z,0.90
2019-02-04T04:39:18.605Z,0.90
2019-02-04T04:41:49.477Z,0.90
2019-02-04T04:44:20.317Z,0.90
2019-02-04T04:46:51.574Z,0.90
2019-02-04T04:49:22.366Z,0.90
2019-02-04T04:51:53.205Z,0.90
2019-02-04T04:54:24.086Z,0.90
2019-02-04T04:56:55.125Z,0.90
2019-02-04T04:59:25.895Z,0.90
2019-02-04T05:01:57.046Z,0.90
2019-02-04T05:04:28.645Z,0.90
2019-02-04T05:07:00.721Z,0.90
2019-02-04T05:09:31.845Z,0.90
2019-02-04T05:12:02.934Z,0.90
2019-02-04T05:14:34.207Z,0.90
2019-02-04T05:17:05.486Z,0.90
2019-02-04T05:19:37.087Z,0.90
2019-02-04T05:22:09.638Z,0.90
2019-02-04T05:24:48.295Z,0.90
2019-02-04T05:27:29.085Z,0.90
2019-02-04T05:30:01.405Z,0.90
2019-02-04T05:32:32.645Z,0.90
2019-02-04T05:35:03.568Z,0.90
2019-02-04T05:37:34.325Z,0.90
2019-02-04T05:40:06.006Z,0.90
2019-02-04T05:42:36.805Z,0.90
2019-02-04T05:45:09.367Z,0.90
2019-02-04T05:47:40.610Z,0.90
2019-02-04T05:50:13.965Z,0.90
2019-02-04T05:52:44.854Z,0.90
2019-02-04T05:55:17.204Z,0.90
2019-02-04T05:57:47.967Z,0.90
2019-02-04T06:00:30.209Z,0.90
2019-02-04T06:03:00.965Z,0.90
2019-02-04T06:05:32.331Z,0.90
2019-02-04T06:08:04.126Z,0.90
2019-02-04T06:10:35.646Z,0.90
2019-02-04T06:13:06.406Z,0.90
2019-02-04T06:15:37.885Z,0.90
2019-02-04T06:18:08.968Z,0.90
2019-02-04T06:20:40.405Z,0.80
2019-02-04T06:23:13.166Z,0.80
2019-02-04T06:25:45.206Z,0.90
2019-02-04T06:28:16.237Z,1.00
2019-02-04T06:30:47.326Z,1.00
2019-02-04T06:33:18.397Z,0.90
2019-02-04T06:35:49.245Z,0.90
2019-02-04T06:38:20.686Z,0.90
2019-02-04T06:40:51.606Z,1.10
2019-02-04T06:43:22.565Z,1.10
2019-02-04T06:45:54.088Z,1.10
2019-02-04T06:48:25.325Z,1.10
2019-02-04T06:50:56.449Z,1.10
2019-02-04T06:53:27.525Z,1.10
2019-02-04T06:55:58.365Z,1.10
2019-02-04T06:58:29.845Z,1.00
2019-02-04T07:01:00.726Z,1.10
2019-02-04T07:03:32.405Z,1.10
2019-02-04T07:06:03.687Z,1.10
2019-02-04T07:08:34.974Z,1.10
2019-02-04T07:11:06.166Z,1.10
2019-02-04T07:13:42.108Z,1.10
2019-02-04T07:16:10.687Z,1.10
2019-02-04T07:18:41.806Z,1.60
2019-02-04T07:21:12.690Z,1.40
2019-02-04T07:23:44.336Z,1.30
2019-02-04T07:26:19.365Z,1.20
2019-02-04T07:28:56.608Z,1.20
2019-02-04T07:31:29.005Z,1.20
2019-02-04T07:34:03.766Z,1.20
2019-02-04T07:36:38.965Z,1.20
2019-02-04T07:39:17.767Z,1.20
2019-02-04T07:41:51.526Z,1.20
2019-02-04T07:44:31.766Z,1.20
2019-02-04T07:47:07.168Z,1.20
2019-02-04T07:49:41.305Z,1.20
2019-02-04T07:52:20.445Z,1.20
2019-02-04T07:55:03.445Z,1.20
2019-02-04T07:57:57.035Z,1.30
2019-02-04T08:00:36.504Z,1.30
2019-02-04T08:03:19.446Z,1.40
2019-02-04T08:05:59.447Z,1.30
2019-02-04T08:08:37.008Z,1.30
2019-02-04T08:11:19.046Z,1.30
2019-02-04T08:13:57.765Z,1.30
2019-02-04T08:16:36.006Z,1.30
2019-02-04T08:19:19.965Z,1.30
2019-02-04T08:22:00.967Z,1.30
2019-02-04T08:24:38.526Z,1.40
2019-02-04T08:27:20.221Z,1.40
2019-02-04T08:29:55.027Z,1.40
2019-02-04T08:32:40.045Z,1.40
2019-02-04T08:35:20.006Z,1.40
2019-02-04T08:38:02.854Z,1.50
2019-02-04T08:40:47.237Z,1.50
2019-02-04T08:43:27.406Z,1.50
2019-02-04T08:46:02.450Z,1.50
2019-02-04T08:48:40.484Z,1.50
2019-02-04T08:51:14.445Z,1.50
2019-02-04T08:53:46.733Z,1.50
2019-02-04T08:56:17.444Z,1.60
2019-02-04T08:58:48.806Z,1.50
2019-02-04T09:01:21.205Z,1.50
2019-02-04T09:03:52.286Z,1.50
2019-02-04T09:06:28.284Z,1.50
2019-02-04T09:08:59.766Z,1.60
2019-02-04T09:11:34.489Z,1.60
2019-02-04T09:14:06.685Z,1.60
2019-02-04T09:16:37.844Z,1.70
2019-02-04T09:19:08.970Z,1.70
2019-02-04T09:21:39.895Z,1.70
2019-02-04T09:24:10.607Z,1.70
2019-02-04T09:26:42.087Z,1.70
2019-02-04T09:29:13.037Z,1.70
2019-02-04T09:31:44.285Z,1.70
2019-02-04T09:34:15.685Z,1.70
2019-02-04T09:36:48.165Z,1.80
2019-02-04T09:39:23.085Z,1.90
2019-02-04T09:41:53.805Z,1.90
2019-02-04T09:44:24.885Z,1.90
2019-02-04T09:46:55.846Z,2.00
2019-02-04T09:49:37.886Z,2.00
2019-02-04T09:52:17.566Z,2.10
2019-02-04T09:54:50.197Z,2.10
2019-02-04T09:57:21.647Z,2.10
2019-02-04T09:59:56.130Z,2.20
2019-02-04T10:02:27.847Z,2.20
2019-02-04T10:04:58.656Z,2.10
2019-02-04T10:07:34.726Z,2.10
2019-02-04T10:10:07.814Z,2.00
2019-02-04T10:12:39.006Z,1.90
2019-02-04T10:15:13.208Z,1.80
2019-02-04T10:17:45.365Z,1.80
2019-02-04T10:20:17.785Z,1.80
2019-02-04T10:22:48.841Z,1.80
2019-02-04T10:25:22.465Z,1.80
2019-02-04T10:27:53.452Z,1.90
2019-02-04T10:30:24.967Z,1.80
2019-02-04T10:32:55.766Z,1.80
2019-02-04T10:35:34.569Z,1.80
2019-02-04T10:38:07.828Z,1.90
2019-02-04T10:40:41.966Z,1.90
2019-02-04T10:43:12.958Z,1.90
2019-02-04T10:45:43.891Z,1.90
2019-02-04T10:48:15.105Z,2.00
2019-02-04T10:50:47.011Z,2.00
2019-02-04T10:53:18.525Z,2.00
2019-02-04T10:55:52.784Z,2.00
2019-02-04T10:58:34.194Z,2.00
2019-02-04T11:01:19.328Z,2.00
2019-02-04T11:04:02.049Z,1.90
2019-02-04T11:06:34.196Z,1.90
2019-02-04T11:09:08.405Z,1.80
2019-02-04T11:11:43.849Z,1.80
2019-02-04T11:14:17.173Z,1.80
2019-02-04T11:16:52.192Z,1.80
2019-02-04T11:19:23.179Z,1.80
2019-02-04T11:21:54.125Z,1.80
2019-02-04T11:24:26.723Z,1.70
2019-02-04T11:26:57.448Z,1.80
2019-02-04T11:29:28.794Z,1.80
2019-02-04T11:32:00.607Z,1.80
2019-02-04T11:34:32.045Z,1.80
2019-02-04T11:37:02.959Z,1.70
2019-02-04T11:39:34.359Z,1.70
2019-02-04T11:42:06.086Z,1.70
2019-02-04T11:44:37.093Z,1.70
2019-02-04T11:47:09.052Z,1.80
2019-02-04T11:49:40.048Z,1.80
2019-02-04T11:52:12.287Z,1.90
2019-02-04T11:54:44.215Z,1.90
2019-02-04T11:57:14.925Z,1.90
2019-02-04T11:59:46.094Z,2.00
2019-02-04T12:02:16.848Z,2.00
2019-02-04T12:04:47.849Z,2.00
2019-02-04T12:07:19.341Z,1.90
2019-02-04T12:09:51.247Z,1.90
2019-02-04T12:12:23.485Z,1.80
2019-02-04T12:14:54.452Z,1.90
2019-02-04T12:17:25.291Z,1.90
2019-02-04T12:19:56.729Z,1.90
2019-02-04T12:22:27.925Z,2.00
2019-02-04T12:25:00.650Z,2.00
2019-02-04T12:27:32.437Z,2.00
2019-02-04T12:30:03.539Z,2.00
2019-02-04T12:32:35.014Z,2.00
2019-02-04T12:35:07.977Z,1.90
2019-02-04T12:37:38.806Z,1.90
2019-02-04T12:40:20.407Z,1.90
2019-02-04T12:42:51.887Z,1.80
2019-02-04T12:45:34.104Z,1.80
2019-02-04T12:48:13.246Z,1.80
2019-02-04T12:50:50.167Z,1.80
2019-02-04T12:53:31.685Z,1.80
2019-02-04T12:56:09.449Z,1.70
2019-02-04T12:58:55.351Z,1.70
2019-02-04T13:01:26.776Z,1.70
2019-02-04T13:04:03.564Z,1.60
2019-02-04T13:06:39.047Z,1.60
2019-02-04T13:09:11.206Z,1.60
2019-02-04T13:11:51.245Z,1.60
2019-02-04T13:14:28.421Z,1.60
2019-02-04T13:17:08.895Z,1.60
2019-02-04T13:19:49.648Z,1.60
2019-02-04T13:22:21.845Z,1.60
2019-02-04T13:24:57.966Z,1.60
2019-02-04T13:27:35.725Z,1.70
2019-02-04T13:30:13.766Z,1.60
2019-02-04T13:32:46.365Z,1.60
2019-02-04T13:35:25.326Z,1.60
2019-02-04T13:38:00.071Z,1.60
2019-02-04T13:40:37.791Z,1.60
2019-02-04T13:43:14.565Z,1.60
2019-02-04T13:45:46.770Z,1.60
2019-02-04T13:48:32.251Z,1.60
2019-02-04T13:51:12.485Z,1.60
2019-02-04T13:53:47.445Z,1.50
2019-02-04T13:56:27.245Z,1.60
2019-02-04T13:59:01.673Z,1.50
2019-02-04T14:01:53.805Z,1.50
2019-02-04T14:04:27.357Z,1.50
2019-02-04T14:07:01.206Z,1.50
2019-02-04T14:09:36.766Z,1.50
2019-02-04T14:12:07.650Z,1.50
2019-02-04T14:14:46.638Z,1.50
2019-02-04T14:17:24.597Z,1.50
2019-02-04T14:20:07.367Z,1.50
2019-02-04T14:22:44.765Z,1.50
2019-02-04T14:25:18.805Z,1.50
2019-02-04T14:27:53.847Z,1.50
2019-02-04T14:30:41.085Z,1.50
2019-02-04T14:33:33.038Z,1.40
2019-02-04T14:36:05.044Z,1.40
2019-02-04T14:38:36.206Z,1.40
2019-02-04T14:41:07.205Z,1.40
2019-02-04T14:43:43.551Z,1.40
2019-02-04T14:46:43.374Z,1.40
2019-02-04T14:49:52.576Z,1.40
2019-02-04T14:52:51.477Z,1.40
2019-02-04T14:55:53.565Z,1.30
2019-02-04T14:58:30.247Z,1.30
2019-02-04T15:01:37.165Z,1.30
2019-02-04T15:04:36.653Z,1.30
2019-02-04T15:07:46.254Z,1.30
2019-02-04T15:10:27.365Z,1.30
2019-02-04T15:13:25.605Z,1.30
2019-02-04T15:16:10.678Z,1.30
2019-02-04T15:19:20.246Z,1.30
2019-02-04T15:22:33.346Z,1.20
2019-02-04T15:25:39.485Z,1.20
2019-02-04T15:28:39.968Z,1.20
2019-02-04T15:31:38.925Z,1.20
2019-02-04T15:34:43.368Z,1.10
2019-02-04T15:37:24.805Z,1.10
2019-02-04T15:40:10.205Z,1.00
2019-02-04T15:43:10.567Z,1.00
2019-02-04T15:45:54.808Z,1.00
2019-02-04T15:48:34.565Z,1.00
2019-02-04T15:51:13.965Z,1.00
2019-02-04T15:53:45.008Z,1.00
2019-02-04T15:56:16.783Z,1.10
2019-02-04T15:58:47.486Z,1.10
2019-02-04T16:01:18.805Z,1.10
2019-02-04T16:03:49.767Z,1.10
2019-02-04T16:06:21.447Z,1.10
2019-02-04T16:08:52.686Z,1.10
2019-02-04T16:11:23.727Z,1.10
2019-02-04T16:13:54.486Z,1.10
2019-02-04T16:16:25.405Z,1.00
2019-02-04T16:18:56.885Z,1.00
2019-02-04T16:21:28.206Z,1.00
2019-02-04T16:23:59.245Z,1.00
2019-02-04T16:26:30.766Z,0.90
2019-02-04T16:29:01.365Z,0.90
2019-02-04T16:31:32.646Z,0.90
2019-02-04T16:34:04.335Z,0.90
2019-02-04T16:36:35.175Z,0.90
2019-02-04T16:39:09.765Z,0.90
2019-02-04T16:41:41.748Z,0.90
2019-02-04T16:44:13.697Z,0.90
2019-02-04T16:46:45.456Z,0.90
2019-02-04T16:49:17.122Z,0.80
2019-02-04T16:51:48.888Z,0.90
2019-02-04T16:54:19.993Z,0.90
2019-02-04T16:56:51.566Z,0.90
2019-02-04T16:59:24.471Z,0.80
2019-02-04T17:01:57.436Z,0.80
2019-02-04T17:04:28.233Z,0.80
2019-02-04T17:07:01.558Z,0.80
2019-02-04T17:09:33.255Z,0.80
2019-02-04T17:12:04.822Z,0.80
2019-02-04T17:14:35.502Z,0.80
2019-02-04T17:17:06.705Z,0.80
2019-02-04T17:19:37.901Z,0.80
2019-02-04T17:22:08.942Z,0.80
2019-02-04T17:24:39.981Z,0.80
2019-02-04T17:27:11.192Z,0.70
2019-02-04T17:29:41.822Z,0.70
2019-02-04T17:32:12.983Z,0.70
2019-02-04T17:34:43.862Z,0.70
2019-02-04T17:37:15.101Z,0.70
2019-02-04T17:39:45.823Z,0.70
2019-02-04T17:42:17.142Z,0.70
2019-02-04T17:44:47.901Z,0.60
2019-02-04T17:47:18.701Z,0.60
2019-02-04T17:49:49.862Z,0.60
2019-02-04T17:52:20.781Z,0.60
2019-02-04T17:54:51.501Z,0.60
2019-02-04T17:57:22.453Z,0.50
2019-02-04T17:59:53.501Z,0.60
2019-02-04T18:02:24.464Z,0.50
2019-02-04T18:04:55.343Z,0.50
2019-02-04T18:07:27.301Z,0.50
2019-02-04T18:09:58.021Z,0.50
2019-02-04T18:12:29.305Z,0.50
2019-02-04T18:14:59.982Z,0.60
2019-02-04T18:17:30.741Z,0.60
2019-02-04T18:20:03.266Z,0.60
2019-02-04T18:22:35.381Z,0.60
2019-02-04T18:25:07.501Z,0.60
2019-02-04T18:27:38.741Z,0.60
2019-02-04T18:30:12.981Z,0.60
2019-02-04T18:32:43.981Z,0.60
2019-02-04T18:35:15.821Z,0.60
2019-02-04T18:37:47.037Z,0.50
2019-02-04T18:40:18.821Z,0.60
2019-02-04T18:42:50.062Z,0.60
2019-02-04T18:45:24.423Z,0.60
2019-02-04T18:47:55.542Z,0.60
2019-02-04T18:50:27.103Z,0.60
2019-02-04T18:52:57.781Z,0.60
2019-02-04T18:55:40.102Z,0.60
2019-02-04T18:58:21.621Z,0.60
2019-02-04T19:01:06.621Z,0.70
2019-02-04T19:03:49.741Z,0.60
2019-02-04T19:06:30.862Z,0.70
2019-02-04T19:09:08.465Z,0.70
2019-02-04T19:11:50.773Z,0.70
2019-02-04T19:14:41.903Z,0.70
2019-02-04T19:17:29.982Z,0.70
2019-02-04T19:20:08.461Z,0.80
2019-02-04T19:22:46.262Z,0.80
2019-02-04T19:25:31.301Z,0.80
2019-02-04T19:28:20.141Z,0.80
2019-02-04T19:31:05.062Z,0.80
2019-02-04T19:33:51.159Z,0.90
2019-02-04T19:36:27.713Z,0.90
2019-02-04T19:39:06.331Z,0.90
2019-02-04T19:41:42.221Z,0.80
2019-02-04T19:44:21.141Z,0.80
2019-02-04T19:47:02.341Z,0.90
2019-02-04T19:49:34.507Z,0.80
2019-02-04T19:52:07.395Z,0.80
2019-02-04T19:54:38.081Z,0.90
2019-02-04T19:57:09.708Z,0.80
2019-02-04T19:59:40.635Z,0.80
2019-02-04T20:02:12.635Z,0.90
2019-02-04T20:04:43.428Z,0.90
2019-02-04T20:07:14.429Z,0.90
2019-02-04T20:09:45.948Z,0.90
2019-02-04T20:12:22.507Z,0.80
2019-02-04T20:15:08.548Z,0.90
2019-02-04T20:17:51.485Z,0.90
2019-02-04T20:20:30.735Z,0.90
2019-02-04T20:23:10.187Z,0.90
2019-02-04T20:25:54.227Z,0.90
2019-02-04T20:28:41.852Z,1.00
2019-02-04T20:31:34.427Z,1.00
2019-02-04T20:34:14.949Z,1.00
2019-02-04T20:36:53.227Z,1.00
2019-02-04T20:40:05.655Z,1.00
2019-02-04T20:42:55.877Z,1.00
2019-02-04T20:45:39.245Z,0.90
2019-02-04T20:48:13.869Z,0.90
2019-02-04T20:50:46.549Z,0.80
2019-02-04T20:53:25.108Z,0.80
2019-02-04T20:55:55.868Z,0.80
2019-02-04T20:58:30.124Z,0.80
2019-02-04T21:01:01.748Z,0.80
2019-02-04T21:03:32.707Z,0.80
2019-02-04T21:06:12.907Z,0.80
2019-02-04T21:08:55.487Z,0.80
2019-02-04T21:11:38.467Z,0.80
2019-02-04T21:14:13.387Z,0.80
2019-02-04T21:16:52.579Z,0.80
2019-02-04T21:19:29.507Z,0.80
2019-02-04T21:22:05.587Z,0.80
2019-02-04T21:24:42.067Z,0.70
2019-02-04T21:27:14.068Z,0.70
2019-02-04T21:29:48.467Z,0.80
2019-02-04T21:32:22.667Z,0.70
2019-02-04T21:34:57.086Z,0.70
2019-02-04T21:37:37.508Z,0.70
2019-02-04T21:40:42.946Z,0.70
2019-02-04T21:43:20.267Z,0.70
2019-02-04T21:45:51.140Z,0.70
2019-02-04T21:48:22.228Z,0.70
2019-02-04T21:51:03.988Z,0.70
2019-02-04T21:53:53.186Z,0.70
2019-02-04T21:56:36.387Z,0.70
2019-02-04T21:59:23.307Z,0.70
2019-02-04T22:02:15.947Z,0.60
2019-02-04T22:05:08.707Z,0.60
2019-02-04T22:07:56.187Z,0.60
2019-02-04T22:10:42.415Z,0.60
2019-02-04T22:13:38.507Z,0.60
2019-02-04T22:16:11.827Z,0.60
2019-02-04T22:19:16.587Z,0.50
2019-02-04T22:22:04.648Z,0.50
2019-02-04T22:24:43.267Z,0.50
2019-02-04T22:27:27.467Z,0.50
2019-02-04T22:30:08.787Z,0.40
2019-02-04T22:32:40.196Z,0.50
2019-02-04T22:35:16.668Z,0.40
2019-02-04T22:38:02.398Z,0.50
2019-02-04T22:40:44.895Z,0.50
2019-02-04T22:43:21.868Z,0.50
2019-02-04T22:45:59.509Z,0.50
2019-02-04T22:48:34.179Z,0.50
2019-02-04T22:51:09.990Z,0.50
2019-02-04T22:53:45.685Z,0.50
2019-02-04T22:56:23.228Z,0.50
2019-02-04T22:58:55.147Z,0.50
2019-02-04T23:01:49.788Z,0.50
2019-02-04T23:04:31.147Z,0.50
2019-02-04T23:07:02.300Z,0.50
2019-02-04T23:09:33.788Z,0.50
2019-02-04T23:12:07.107Z,0.50
2019-02-04T23:14:48.508Z,0.50
2019-02-04T23:17:27.156Z,0.50
2019-02-04T23:20:04.748Z,0.50
2019-02-04T23:22:38.547Z,0.50
2019-02-04T23:25:11.347Z,0.40
2019-02-04T23:27:44.548Z,0.40
2019-02-04T23:30:16.395Z,0.40
2019-02-04T23:32:47.474Z,0.40
2019-02-04T23:35:20.497Z,0.40
2019-02-04T23:37:51.765Z,0.40
2019-02-04T23:40:23.532Z,0.40
2019-02-04T23:42:54.504Z,0.30
2019-02-04T23:45:25.625Z,0.30
2019-02-04T23:47:56.531Z,0.30
2019-02-04T23:50:27.344Z,0.30
2019-02-04T23:52:58.586Z,0.30
2019-02-04T23:55:30.100Z,0.40
2019-02-04T23:58:00.819Z,0.30
